sensor_id;sensor_type;location;lat;lon;timestamp;P1;durP1;ratioP1;P2;durP2;ratioP2
66761;SDS011;53672;48.176;16.338;2024-02-04T00:03:00;6.53;;;2.90;;
66761;SDS011;53672;48.176;16.338;2024-02-04T00:08:02;5.93;;;3.10;;
66761;SDS011;53672;48.176;16.338;2024-02-04T00:13:04;6.53;;;3.05;;
66761;SDS011;53672;48.176;16.338;2024-02-04T00:18:07;6.40;;;3.10;;
66761;SDS011;53672;48.176;16.338;2024-02-04T00:23:09;6.25;;;2.90;;
66761;SDS011;53672;48.176;16.338;2024-02-04T00:28:10;6.15;;;2.90;;
66761;SDS011;53672;48.176;16.338;2024-02-04T00:33:14;8.17;;;3.17;;
66761;SDS011;53672;48.176;16.338;2024-02-04T00:38:16;6.38;;;3.00;;
66761;SDS011;53672;48.176;16.338;2024-02-04T00:43:17;5.43;;;2.70;;
66761;SDS011;53672;48.176;16.338;2024-02-04T00:48:20;6.43;;;3.10;;
66761;SDS011;53672;48.176;16.338;2024-02-04T00:53:22;6.50;;;2.97;;
66761;SDS011;53672;48.176;16.338;2024-02-04T00:58:23;7.27;;;3.30;;
66761;SDS011;53672;48.176;16.338;2024-02-04T01:03:26;5.90;;;2.70;;
66761;SDS011;53672;48.176;16.338;2024-02-04T01:08:28;5.67;;;2.70;;
66761;SDS011;53672;48.176;16.338;2024-02-04T01:13:29;5.93;;;2.78;;
66761;SDS011;53672;48.176;16.338;2024-02-04T01:18:32;6.45;;;2.92;;
66761;SDS011;53672;48.176;16.338;2024-02-04T01:23:34;6.37;;;2.97;;
66761;SDS011;53672;48.176;16.338;2024-02-04T01:28:36;4.55;;;2.40;;
66761;SDS011;53672;48.176;16.338;2024-02-04T01:33:39;6.00;;;2.50;;
66761;SDS011;53672;48.176;16.338;2024-02-04T01:38:40;5.60;;;2.53;;
66761;SDS011;53672;48.176;16.338;2024-02-04T01:43:42;6.47;;;2.85;;
66761;SDS011;53672;48.176;16.338;2024-02-04T01:48:45;5.77;;;2.70;;
66761;SDS011;53672;48.176;16.338;2024-02-04T01:53:47;6.03;;;2.92;;
66761;SDS011;53672;48.176;16.338;2024-02-04T01:58:50;5.53;;;2.80;;
66761;SDS011;53672;48.176;16.338;2024-02-04T02:03:53;6.43;;;3.30;;
66761;SDS011;53672;48.176;16.338;2024-02-04T02:08:54;7.07;;;3.08;;
66761;SDS011;53672;48.176;16.338;2024-02-04T02:13:58;7.37;;;3.60;;
66761;SDS011;53672;48.176;16.338;2024-02-04T02:19:07;7.78;;;4.30;;
66761;SDS011;53672;48.176;16.338;2024-02-04T02:24:16;8.07;;;4.20;;
66761;SDS011;53672;48.176;16.338;2024-02-04T02:29:29;8.82;;;3.95;;
66761;SDS011;53672;48.176;16.338;2024-02-04T02:34:32;8.95;;;4.50;;
66761;SDS011;53672;48.176;16.338;2024-02-04T02:39:36;8.00;;;4.33;;
66761;SDS011;53672;48.176;16.338;2024-02-04T02:44:46;8.52;;;4.35;;
66761;SDS011;53672;48.176;16.338;2024-02-04T02:49:50;8.30;;;4.33;;
66761;SDS011;53672;48.176;16.338;2024-02-04T02:54:54;8.50;;;4.40;;
66761;SDS011;53672;48.176;16.338;2024-02-04T02:59:55;8.25;;;4.20;;
66761;SDS011;53672;48.176;16.338;2024-02-04T03:04:57;8.03;;;4.20;;
66761;SDS011;53672;48.176;16.338;2024-02-04T03:10:00;7.88;;;4.25;;
66761;SDS011;53672;48.176;16.338;2024-02-04T03:15:03;8.83;;;4.20;;
66761;SDS011;53672;48.176;16.338;2024-02-04T03:20:06;7.25;;;3.67;;
66761;SDS011;53672;48.176;16.338;2024-02-04T03:25:09;6.88;;;3.47;;
66761;SDS011;53672;48.176;16.338;2024-02-04T03:30:11;7.70;;;3.80;;
66761;SDS011;53672;48.176;16.338;2024-02-04T03:35:13;6.85;;;3.35;;
66761;SDS011;53672;48.176;16.338;2024-02-04T03:40:16;7.80;;;3.47;;
66761;SDS011;53672;48.176;16.338;2024-02-04T03:45:19;6.28;;;3.13;;
66761;SDS011;53672;48.176;16.338;2024-02-04T03:50:21;7.10;;;3.22;;
66761;SDS011;53672;48.176;16.338;2024-02-04T03:55:24;7.77;;;3.40;;
66761;SDS011;53672;48.176;16.338;2024-02-04T04:00:25;8.00;;;4.03;;
66761;SDS011;53672;48.176;16.338;2024-02-04T04:05:27;7.07;;;3.50;;
66761;SDS011;53672;48.176;16.338;2024-02-04T04:10:30;8.13;;;4.20;;
66761;SDS011;53672;48.176;16.338;2024-02-04T04:15:31;6.75;;;3.28;;
66761;SDS011;53672;48.176;16.338;2024-02-04T04:20:33;7.07;;;3.47;;
66761;SDS011;53672;48.176;16.338;2024-02-04T04:25:36;7.18;;;3.13;;
66761;SDS011;53672;48.176;16.338;2024-02-04T04:30:37;7.07;;;3.50;;
66761;SDS011;53672;48.176;16.338;2024-02-04T04:35:39;6.97;;;3.47;;
66761;SDS011;53672;48.176;16.338;2024-02-04T04:40:42;6.95;;;3.47;;
66761;SDS011;53672;48.176;16.338;2024-02-04T04:45:44;7.87;;;3.40;;
66761;SDS011;53672;48.176;16.338;2024-02-04T04:50:45;6.57;;;3.20;;
66761;SDS011;53672;48.176;16.338;2024-02-04T04:55:48;5.20;;;2.73;;
66761;SDS011;53672;48.176;16.338;2024-02-04T05:00:50;6.78;;;2.90;;
66761;SDS011;53672;48.176;16.338;2024-02-04T05:05:51;5.47;;;2.53;;
66761;SDS011;53672;48.176;16.338;2024-02-04T05:10:54;5.40;;;2.57;;
66761;SDS011;53672;48.176;16.338;2024-02-04T05:15:56;5.05;;;2.40;;
66761;SDS011;53672;48.176;16.338;2024-02-04T05:20:57;5.07;;;2.20;;
66761;SDS011;53672;48.176;16.338;2024-02-04T05:26:03;4.45;;;2.10;;
66761;SDS011;53672;48.176;16.338;2024-02-04T05:31:05;5.20;;;2.05;;
66761;SDS011;53672;48.176;16.338;2024-02-04T05:36:07;5.23;;;2.33;;
66761;SDS011;53672;48.176;16.338;2024-02-04T05:41:10;4.88;;;2.10;;
66761;SDS011;53672;48.176;16.338;2024-02-04T05:46:13;5.20;;;2.20;;
66761;SDS011;53672;48.176;16.338;2024-02-04T05:51:15;4.95;;;2.50;;
66761;SDS011;53672;48.176;16.338;2024-02-04T05:56:17;5.57;;;2.20;;
66761;SDS011;53672;48.176;16.338;2024-02-04T06:01:20;6.93;;;2.60;;
66761;SDS011;53672;48.176;16.338;2024-02-04T06:06:21;6.03;;;2.50;;
66761;SDS011;53672;48.176;16.338;2024-02-04T06:11:24;5.87;;;2.60;;
66761;SDS011;53672;48.176;16.338;2024-02-04T06:16:26;6.53;;;2.60;;
66761;SDS011;53672;48.176;16.338;2024-02-04T06:21:28;6.78;;;3.00;;
66761;SDS011;53672;48.176;16.338;2024-02-04T06:26:31;5.53;;;2.60;;
66761;SDS011;53672;48.176;16.338;2024-02-04T06:31:32;6.25;;;2.92;;
66761;SDS011;53672;48.176;16.338;2024-02-04T06:36:34;6.30;;;3.00;;
66761;SDS011;53672;48.176;16.338;2024-02-04T06:41:37;6.07;;;2.95;;
66761;SDS011;53672;48.176;16.338;2024-02-04T06:46:38;5.50;;;2.85;;
66761;SDS011;53672;48.176;16.338;2024-02-04T06:51:40;5.43;;;2.70;;
66761;SDS011;53672;48.176;16.338;2024-02-04T06:56:43;6.10;;;2.60;;
66761;SDS011;53672;48.176;16.338;2024-02-04T07:01:45;6.13;;;2.50;;
66761;SDS011;53672;48.176;16.338;2024-02-04T07:06:47;5.32;;;2.50;;
66761;SDS011;53672;48.176;16.338;2024-02-04T07:11:50;5.65;;;2.30;;
66761;SDS011;53672;48.176;16.338;2024-02-04T07:16:51;4.90;;;2.33;;
66761;SDS011;53672;48.176;16.338;2024-02-04T07:21:53;4.63;;;2.22;;
66761;SDS011;53672;48.176;16.338;2024-02-04T07:26:56;4.57;;;2.10;;
66761;SDS011;53672;48.176;16.338;2024-02-04T07:31:57;4.57;;;2.20;;
66761;SDS011;53672;48.176;16.338;2024-02-04T07:36:59;4.35;;;2.05;;
66761;SDS011;53672;48.176;16.338;2024-02-04T07:42:02;5.23;;;2.03;;
66761;SDS011;53672;48.176;16.338;2024-02-04T07:47:04;4.35;;;1.83;;
66761;SDS011;53672;48.176;16.338;2024-02-04T07:52:06;4.70;;;1.87;;
66761;SDS011;53672;48.176;16.338;2024-02-04T07:57:09;4.20;;;1.80;;
66761;SDS011;53672;48.176;16.338;2024-02-04T08:02:10;5.15;;;1.88;;
66761;SDS011;53672;48.176;16.338;2024-02-04T08:07:12;5.20;;;1.80;;
66761;SDS011;53672;48.176;16.338;2024-02-04T08:12:16;4.80;;;1.83;;
66761;SDS011;53672;48.176;16.338;2024-02-04T08:17:17;3.77;;;1.30;;
66761;SDS011;53672;48.176;16.338;2024-02-04T08:22:19;3.90;;;1.50;;
66761;SDS011;53672;48.176;16.338;2024-02-04T08:27:22;3.88;;;1.38;;
66761;SDS011;53672;48.176;16.338;2024-02-04T08:32:23;3.37;;;1.10;;
66761;SDS011;53672;48.176;16.338;2024-02-04T08:37:25;2.80;;;0.90;;
66761;SDS011;53672;48.176;16.338;2024-02-04T08:42:28;3.17;;;0.97;;
66761;SDS011;53672;48.176;16.338;2024-02-04T08:47:30;3.05;;;0.90;;
66761;SDS011;53672;48.176;16.338;2024-02-04T08:52:31;2.60;;;0.75;;
66761;SDS011;53672;48.176;16.338;2024-02-04T08:57:34;3.07;;;1.00;;
66761;SDS011;53672;48.176;16.338;2024-02-04T09:02:36;2.47;;;0.82;;
66761;SDS011;53672;48.176;16.338;2024-02-04T09:07:37;2.37;;;0.80;;
66761;SDS011;53672;48.176;16.338;2024-02-04T09:12:41;3.85;;;0.80;;
66761;SDS011;53672;48.176;16.338;2024-02-04T09:17:43;3.47;;;0.75;;
66761;SDS011;53672;48.176;16.338;2024-02-04T09:22:44;2.57;;;0.80;;
66761;SDS011;53672;48.176;16.338;2024-02-04T09:27:47;2.80;;;0.90;;
66761;SDS011;53672;48.176;16.338;2024-02-04T09:32:49;2.70;;;0.90;;
66761;SDS011;53672;48.176;16.338;2024-02-04T09:37:51;2.65;;;0.65;;
66761;SDS011;53672;48.176;16.338;2024-02-04T09:42:54;2.40;;;0.80;;
66761;SDS011;53672;48.176;16.338;2024-02-04T09:47:56;2.53;;;0.83;;
66761;SDS011;53672;48.176;16.338;2024-02-04T09:52:59;2.72;;;1.10;;
66761;SDS011;53672;48.176;16.338;2024-02-04T09:58:05;2.73;;;0.87;;
66761;SDS011;53672;48.176;16.338;2024-02-04T10:03:07;2.40;;;0.80;;
66761;SDS011;53672;48.176;16.338;2024-02-04T10:08:08;2.58;;;0.90;;
66761;SDS011;53672;48.176;16.338;2024-02-04T10:13:12;2.77;;;0.93;;
66761;SDS011;53672;48.176;16.338;2024-02-04T10:18:13;3.33;;;1.00;;
66761;SDS011;53672;48.176;16.338;2024-02-04T10:23:15;2.97;;;0.83;;
66761;SDS011;53672;48.176;16.338;2024-02-04T10:28:18;2.30;;;0.70;;
66761;SDS011;53672;48.176;16.338;2024-02-04T10:33:20;2.33;;;0.70;;
66761;SDS011;53672;48.176;16.338;2024-02-04T10:38:22;2.30;;;0.60;;
66761;SDS011;53672;48.176;16.338;2024-02-04T10:43:26;2.63;;;0.70;;
66761;SDS011;53672;48.176;16.338;2024-02-04T10:48:32;2.00;;;0.50;;
66761;SDS011;53672;48.176;16.338;2024-02-04T10:53:42;2.38;;;0.50;;
66761;SDS011;53672;48.176;16.338;2024-02-04T10:58:46;2.10;;;0.50;;
66761;SDS011;53672;48.176;16.338;2024-02-04T11:03:48;2.20;;;0.50;;
66761;SDS011;53672;48.176;16.338;2024-02-04T11:08:52;2.08;;;0.57;;
66761;SDS011;53672;48.176;16.338;2024-02-04T11:13:56;2.13;;;0.60;;
66761;SDS011;53672;48.176;16.338;2024-02-04T11:19:08;6.00;;;0.70;;
66761;SDS011;53672;48.176;16.338;2024-02-04T11:24:26;2.47;;;0.80;;
66761;SDS011;53672;48.176;16.338;2024-02-04T11:29:44;2.73;;;0.70;;
66761;SDS011;53672;48.176;16.338;2024-02-04T11:34:46;2.70;;;0.80;;
66761;SDS011;53672;48.176;16.338;2024-02-04T11:39:48;3.10;;;1.13;;
66761;SDS011;53672;48.176;16.338;2024-02-04T11:45:05;2.72;;;0.82;;
66761;SDS011;53672;48.176;16.338;2024-02-04T11:50:08;2.30;;;0.68;;
66761;SDS011;53672;48.176;16.338;2024-02-04T11:55:12;2.83;;;0.90;;
66761;SDS011;53672;48.176;16.338;2024-02-04T12:00:18;3.15;;;1.00;;
66761;SDS011;53672;48.176;16.338;2024-02-04T12:05:21;3.13;;;0.80;;
66761;SDS011;53672;48.176;16.338;2024-02-04T12:10:23;3.08;;;0.90;;
66761;SDS011;53672;48.176;16.338;2024-02-04T12:15:28;2.70;;;0.80;;
66761;SDS011;53672;48.176;16.338;2024-02-04T12:20:30;2.77;;;0.70;;
66761;SDS011;53672;48.176;16.338;2024-02-04T12:25:31;2.40;;;0.60;;
66761;SDS011;53672;48.176;16.338;2024-02-04T12:30:35;4.70;;;0.80;;
66761;SDS011;53672;48.176;16.338;2024-02-04T12:35:36;3.45;;;0.88;;
66761;SDS011;53672;48.176;16.338;2024-02-04T12:40:38;3.28;;;0.80;;
66761;SDS011;53672;48.176;16.338;2024-02-04T12:45:41;3.20;;;0.80;;
66761;SDS011;53672;48.176;16.338;2024-02-04T12:50:43;2.53;;;0.80;;
66761;SDS011;53672;48.176;16.338;2024-02-04T12:55:44;3.43;;;0.80;;
66761;SDS011;53672;48.176;16.338;2024-02-04T13:00:48;3.17;;;1.08;;
66761;SDS011;53672;48.176;16.338;2024-02-04T13:05:49;3.63;;;0.95;;
66761;SDS011;53672;48.176;16.338;2024-02-04T13:10:53;5.00;;;1.40;;
66761;SDS011;53672;48.176;16.338;2024-02-04T13:15:57;3.22;;;1.30;;
66761;SDS011;53672;48.176;16.338;2024-02-04T13:20:59;4.10;;;1.33;;
66761;SDS011;53672;48.176;16.338;2024-02-04T13:26:01;4.07;;;1.20;;
66761;SDS011;53672;48.176;16.338;2024-02-04T13:31:04;3.55;;;1.05;;
66761;SDS011;53672;48.176;16.338;2024-02-04T13:36:06;3.30;;;1.20;;
66761;SDS011;53672;48.176;16.338;2024-02-04T13:41:08;3.47;;;1.20;;
66761;SDS011;53672;48.176;16.338;2024-02-04T13:46:11;3.13;;;1.23;;
66761;SDS011;53672;48.176;16.338;2024-02-04T13:51:13;4.57;;;1.60;;
66761;SDS011;53672;48.176;16.338;2024-02-04T13:56:15;4.30;;;1.48;;
66761;SDS011;53672;48.176;16.338;2024-02-04T14:01:20;3.93;;;1.37;;
66761;SDS011;53672;48.176;16.338;2024-02-04T14:06:23;3.30;;;1.50;;
66761;SDS011;53672;48.176;16.338;2024-02-04T14:11:24;4.43;;;1.50;;
66761;SDS011;53672;48.176;16.338;2024-02-04T14:16:27;3.85;;;1.60;;
66761;SDS011;53672;48.176;16.338;2024-02-04T14:21:31;3.83;;;1.45;;
66761;SDS011;53672;48.176;16.338;2024-02-04T14:26:33;3.50;;;1.60;;
66761;SDS011;53672;48.176;16.338;2024-02-04T14:31:35;3.92;;;1.80;;
66761;SDS011;53672;48.176;16.338;2024-02-04T14:36:37;3.67;;;1.47;;
66761;SDS011;53672;48.176;16.338;2024-02-04T14:41:39;4.97;;;1.45;;
66761;SDS011;53672;48.176;16.338;2024-02-04T14:46:42;4.05;;;1.60;;
66761;SDS011;53672;48.176;16.338;2024-02-04T14:51:45;3.87;;;1.70;;
66761;SDS011;53672;48.176;16.338;2024-02-04T14:56:47;3.50;;;1.50;;
66761;SDS011;53672;48.176;16.338;2024-02-04T15:01:52;3.50;;;1.40;;
66761;SDS011;53672;48.176;16.338;2024-02-04T15:06:54;4.03;;;1.50;;
66761;SDS011;53672;48.176;16.338;2024-02-04T15:11:56;4.28;;;1.50;;
66761;SDS011;53672;48.176;16.338;2024-02-04T15:16:59;3.37;;;1.33;;
66761;SDS011;53672;48.176;16.338;2024-02-04T15:22:02;3.75;;;1.40;;
66761;SDS011;53672;48.176;16.338;2024-02-04T15:27:04;4.10;;;1.50;;
66761;SDS011;53672;48.176;16.338;2024-02-04T15:32:09;4.38;;;1.40;;
66761;SDS011;53672;48.176;16.338;2024-02-04T15:37:11;3.90;;;1.50;;
66761;SDS011;53672;48.176;16.338;2024-02-04T15:42:13;4.67;;;1.67;;
66761;SDS011;53672;48.176;16.338;2024-02-04T15:47:16;6.95;;;1.70;;
66761;SDS011;53672;48.176;16.338;2024-02-04T15:52:19;5.10;;;1.73;;
66761;SDS011;53672;48.176;16.338;2024-02-04T15:57:22;4.28;;;1.60;;
66761;SDS011;53672;48.176;16.338;2024-02-04T16:02:31;3.70;;;1.45;;
66761;SDS011;53672;48.176;16.338;2024-02-04T16:07:32;5.53;;;1.60;;
66761;SDS011;53672;48.176;16.338;2024-02-04T16:12:35;4.00;;;1.48;;
66761;SDS011;53672;48.176;16.338;2024-02-04T16:17:38;4.13;;;1.20;;
66761;SDS011;53672;48.176;16.338;2024-02-04T16:22:40;3.88;;;1.35;;
66761;SDS011;53672;48.176;16.338;2024-02-04T16:27:42;3.60;;;1.50;;
66761;SDS011;53672;48.176;16.338;2024-02-04T16:32:46;3.87;;;1.30;;
66761;SDS011;53672;48.176;16.338;2024-02-04T16:37:47;2.97;;;1.05;;
66761;SDS011;53672;48.176;16.338;2024-02-04T16:42:49;2.80;;;1.10;;
66761;SDS011;53672;48.176;16.338;2024-02-04T16:47:53;3.10;;;1.08;;
66761;SDS011;53672;48.176;16.338;2024-02-04T16:52:54;3.28;;;1.02;;
66761;SDS011;53672;48.176;16.338;2024-02-04T16:57:56;3.60;;;1.07;;
66761;SDS011;53672;48.176;16.338;2024-02-04T17:02:59;4.07;;;1.20;;
66761;SDS011;53672;48.176;16.338;2024-02-04T17:08:03;3.10;;;1.17;;
66761;SDS011;53672;48.176;16.338;2024-02-04T17:13:06;3.97;;;1.33;;
66761;SDS011;53672;48.176;16.338;2024-02-04T17:18:10;4.55;;;2.05;;
66761;SDS011;53672;48.176;16.338;2024-02-04T17:23:15;5.67;;;3.03;;
66761;SDS011;53672;48.176;16.338;2024-02-04T17:28:20;3.90;;;1.90;;
66761;SDS011;53672;48.176;16.338;2024-02-04T17:33:24;5.90;;;3.27;;
66761;SDS011;53672;48.176;16.338;2024-02-04T17:38:26;4.43;;;2.38;;
66761;SDS011;53672;48.176;16.338;2024-02-04T17:43:28;3.40;;;1.55;;
66761;SDS011;53672;48.176;16.338;2024-02-04T17:48:31;3.73;;;1.60;;
66761;SDS011;53672;48.176;16.338;2024-02-04T17:53:32;4.25;;;2.03;;
66761;SDS011;53672;48.176;16.338;2024-02-04T17:58:34;3.60;;;1.70;;
66761;SDS011;53672;48.176;16.338;2024-02-04T18:03:37;4.25;;;2.25;;
66761;SDS011;53672;48.176;16.338;2024-02-04T18:08:39;3.58;;;1.50;;
66761;SDS011;53672;48.176;16.338;2024-02-04T18:13:41;3.80;;;1.50;;
66761;SDS011;53672;48.176;16.338;2024-02-04T18:18:44;5.10;;;0.93;;
66761;SDS011;53672;48.176;16.338;2024-02-04T18:23:45;3.87;;;0.97;;
66761;SDS011;53672;48.176;16.338;2024-02-04T18:28:47;3.25;;;0.90;;
66761;SDS011;53672;48.176;16.338;2024-02-04T18:33:51;3.75;;;1.00;;
66761;SDS011;53672;48.176;16.338;2024-02-04T18:38:54;6.97;;;3.07;;
66761;SDS011;53672;48.176;16.338;2024-02-04T18:43:56;4.43;;;2.30;;
66761;SDS011;53672;48.176;16.338;2024-02-04T18:48:59;6.53;;;4.00;;
66761;SDS011;53672;48.176;16.338;2024-02-04T18:54:01;3.83;;;1.40;;
66761;SDS011;53672;48.176;16.338;2024-02-04T18:59:04;3.92;;;1.20;;
66761;SDS011;53672;48.176;16.338;2024-02-04T19:04:08;3.23;;;1.10;;
66761;SDS011;53672;48.176;16.338;2024-02-04T19:09:10;3.20;;;1.20;;
66761;SDS011;53672;48.176;16.338;2024-02-04T19:14:12;3.50;;;1.10;;
66761;SDS011;53672;48.176;16.338;2024-02-04T19:19:15;5.07;;;1.33;;
66761;SDS011;53672;48.176;16.338;2024-02-04T19:24:16;4.57;;;1.50;;
66761;SDS011;53672;48.176;16.338;2024-02-04T19:29:18;3.70;;;1.30;;
66761;SDS011;53672;48.176;16.338;2024-02-04T19:34:21;4.35;;;1.73;;
66761;SDS011;53672;48.176;16.338;2024-02-04T19:39:23;5.57;;;2.77;;
66761;SDS011;53672;48.176;16.338;2024-02-04T19:44:24;4.38;;;2.00;;
66761;SDS011;53672;48.176;16.338;2024-02-04T19:49:28;4.35;;;2.30;;
66761;SDS011;53672;48.176;16.338;2024-02-04T19:54:30;4.83;;;2.23;;
66761;SDS011;53672;48.176;16.338;2024-02-04T19:59:31;4.10;;;1.50;;
66761;SDS011;53672;48.176;16.338;2024-02-04T20:04:34;3.50;;;1.67;;
66761;SDS011;53672;48.176;16.338;2024-02-04T20:09:36;3.67;;;1.83;;
66761;SDS011;53672;48.176;16.338;2024-02-04T20:14:38;4.15;;;1.88;;
66761;SDS011;53672;48.176;16.338;2024-02-04T20:19:42;4.17;;;2.00;;
66761;SDS011;53672;48.176;16.338;2024-02-04T20:24:44;4.88;;;2.20;;
66761;SDS011;53672;48.176;16.338;2024-02-04T20:29:45;5.07;;;2.20;;
66761;SDS011;53672;48.176;16.338;2024-02-04T20:34:49;4.32;;;1.85;;
66761;SDS011;53672;48.176;16.338;2024-02-04T20:39:50;3.65;;;1.60;;
66761;SDS011;53672;48.176;16.338;2024-02-04T20:44:52;5.33;;;1.50;;
66761;SDS011;53672;48.176;16.338;2024-02-04T20:49:55;4.47;;;1.73;;
66761;SDS011;53672;48.176;16.338;2024-02-04T20:54:57;3.93;;;1.70;;
66761;SDS011;53672;48.176;16.338;2024-02-04T20:59:59;4.82;;;1.70;;
66761;SDS011;53672;48.176;16.338;2024-02-04T21:05:02;6.10;;;1.58;;
66761;SDS011;53672;48.176;16.338;2024-02-04T21:10:05;4.10;;;1.70;;
66761;SDS011;53672;48.176;16.338;2024-02-04T21:15:07;5.43;;;2.25;;
66761;SDS011;53672;48.176;16.338;2024-02-04T21:20:11;6.37;;;1.90;;
66761;SDS011;53672;48.176;16.338;2024-02-04T21:25:13;5.88;;;1.75;;
66761;SDS011;53672;48.176;16.338;2024-02-04T21:30:15;4.45;;;1.33;;
66761;SDS011;53672;48.176;16.338;2024-02-04T21:35:18;3.60;;;1.57;;
66761;SDS011;53672;48.176;16.338;2024-02-04T21:40:20;3.75;;;1.00;;
66761;SDS011;53672;48.176;16.338;2024-02-04T21:45:22;3.97;;;1.00;;
66761;SDS011;53672;48.176;16.338;2024-02-04T21:50:25;3.33;;;0.80;;
66761;SDS011;53672;48.176;16.338;2024-02-04T21:55:26;3.72;;;1.00;;
66761;SDS011;53672;48.176;16.338;2024-02-04T22:00:28;3.13;;;0.70;;
66761;SDS011;53672;48.176;16.338;2024-02-04T22:05:32;2.60;;;0.70;;
66761;SDS011;53672;48.176;16.338;2024-02-04T22:10:35;2.73;;;0.77;;
66761;SDS011;53672;48.176;16.338;2024-02-04T22:15:37;3.00;;;0.70;;
66761;SDS011;53672;48.176;16.338;2024-02-04T22:20:40;3.42;;;0.70;;
66761;SDS011;53672;48.176;16.338;2024-02-04T22:25:41;3.07;;;0.83;;
66761;SDS011;53672;48.176;16.338;2024-02-04T22:30:43;3.05;;;0.90;;
66761;SDS011;53672;48.176;16.338;2024-02-04T22:35:48;3.73;;;1.00;;
66761;SDS011;53672;48.176;16.338;2024-02-04T22:40:49;2.70;;;0.90;;
66761;SDS011;53672;48.176;16.338;2024-02-04T22:45:51;2.65;;;0.70;;
66761;SDS011;53672;48.176;16.338;2024-02-04T22:50:54;2.67;;;0.70;;
66761;SDS011;53672;48.176;16.338;2024-02-04T22:55:56;3.75;;;1.00;;
66761;SDS011;53672;48.176;16.338;2024-02-04T23:00:57;2.90;;;0.80;;
66761;SDS011;53672;48.176;16.338;2024-02-04T23:06:00;3.03;;;0.70;;
66761;SDS011;53672;48.176;16.338;2024-02-04T23:11:02;3.75;;;1.00;;
66761;SDS011;53672;48.176;16.338;2024-02-04T23:16:04;2.73;;;0.90;;
66761;SDS011;53672;48.176;16.338;2024-02-04T23:21:07;3.78;;;1.20;;
66761;SDS011;53672;48.176;16.338;2024-02-04T23:26:09;2.83;;;0.87;;
66761;SDS011;53672;48.176;16.338;2024-02-04T23:31:11;3.63;;;0.90;;
66761;SDS011;53672;48.176;16.338;2024-02-04T23:36:14;3.53;;;1.00;;
66761;SDS011;53672;48.176;16.338;2024-02-04T23:41:15;2.77;;;0.80;;
66761;SDS011;53672;48.176;16.338;2024-02-04T23:46:17;3.30;;;0.95;;
66761;SDS011;53672;48.176;16.338;2024-02-04T23:51:20;3.07;;;0.77;;
66761;SDS011;53672;48.176;16.338;2024-02-04T23:56:21;3.10;;;0.70;;
